This is the latest recevied weather packets stored in our database for station/object ALAKES. If no packets are shown the sender has not sent any weather packets the latest 10 day(s).
| Time | Temp. | Humidity | Pressure | Rain* | Wind** | Luminosity | Snow |
|---|---|---|---|---|---|---|---|
| 1788040046 | 8.33° C | 49% | - | 0 mm | - | - | - |
| 1788039424 | 8.33° C | 50% | - | 0 mm | - | - | - |
| 1788038792 | 8.33° C | 49% | - | 0 mm | - | - | - |
| 1788038160 | 8.89° C | 52% | - | 0 mm | - | - | - |
| 1788037523 | 8.89° C | 55% | - | 0 mm | - | - | - |
| 1788036893 | 8.89° C | 56% | - | 0 mm | - | - | - |
| 1788036325 | 8.89° C | 54% | - | 0 mm | - | - | - |
| 1788036261 | 8.89° C | 54% | - | 0 mm | - | - | - |
| 1788035629 | 8.89° C | 55% | - | 0 mm | - | - | - |
| 1788035001 | 9.44° C | 55% | - | 0 mm | - | - | - |
| 1788034359 | 8.89° C | 53% | - | 0 mm | - | - | - |
| 1788033717 | 7.78° C | 59% | - | 0 mm | - | - | - |
| 1788033085 | 8.33° C | 57% | - | 0 mm | - | - | - |
| 1788032459 | 8.33° C | 60% | - | 0 mm | - | - | - |
| 1788031877 | 7.78° C | 64% | - | 0 mm | - | - | - |
| 1788031829 | 7.78° C | 64% | - | 0 mm | - | - | - |
| 1788031205 | 7.78° C | 64% | - | 0 mm | - | - | - |
| 1788030579 | 7.22° C | 66% | - | 0 mm | - | - | - |
| 1788030005 | 6.67° C | 67% | - | 0 mm | - | - | - |
| 1788029954 | 6.67° C | 67% | - | 0 mm | - | - | - |
| 1788029317 | 7.22° C | 67% | - | 0 mm | - | - | - |
| 1788029016 | 6.67° C | 69% | - | 0 mm | - | - | - |
| 1788028689 | 6.67° C | 69% | - | 0 mm | - | - | - |
| 1788028031 | 6.11° C | 71% | - | 0 mm | - | - | - |
| 1788027393 | 6.67° C | 67% | - | 0 mm | - | - | - |
* Rain latest 24 hours (hover to see other rain measurements)
** Current wind speed in m/s (hover to see current wind gust speed)